Swoope, Virginia
Current Conditions -  °F | °C
As of 6:15 AM on Monday 22 Dec 2014 (Local Time) from KW13 Reporting Station
Overcast Overcast  
Wind Chill: 32°   Ceiling: 2700
Heat Index: 32°   Visibility: 10mi
Dew Point: 25°   Wind: 3mph
Humidity: 76%   Direction: 140°SE
Pressure: 30.19"   Gusts: NA
Location:  38.16°N, 79.21°W
Report Text: KW13 221115Z AUTO 14003KT 10SM OVC027 00/M04 A3019 RMK AO1 T00001038
Loading
Personal Weather Stations






























Interactive Weather Map New forecast layout! Learn more

10-Day Weather Forecast

Advertisements
Track Severe Weather on mobile